Time;durP1;ratioP1;P1;durP2;ratioP2;P2;SDS_P1;SDS_P2;PMS_P1;PMS_P2;Temp;Humidity;BMP_temperature;BMP_pressure;BME280_temperature;BME280_humidity;BME280_pressure;Samples;Min_cycle;Max_cycle;Signal;HPM_P1;HPM_P2
2022/07/13 00:01:04;;;;;;;1.30;1.20;;;20.80;46.20;;;;;;20695;6808;119676;-83
2022/07/13 00:03:41;;;;;;;1.00;1.00;;;20.90;47.00;;;;;;20421;6808;315364;-84
2022/07/13 00:06:17;;;;;;;0.90;0.90;;;20.90;46.90;;;;;;20629;6823;119731;-85
2022/07/13 00:08:55;;;;;;;2.10;1.30;;;20.90;46.70;;;;;;20679;6817;117663;-84
2022/07/13 00:11:27;;;;;;;0.93;0.93;;;20.70;47.00;;;;;;20684;6815;117897;-84
2022/07/13 00:14:03;;;;;;;1.07;1.07;;;20.50;47.40;;;;;;20384;6815;281101;-84
2022/07/13 00:16:39;;;;;;;1.90;1.30;;;20.80;48.20;;;;;;20477;6808;311910;-85
2022/07/13 00:19:15;;;;;;;1.27;1.27;;;21.30;47.80;;;;;;20657;6822;119588;-84
2022/07/13 00:21:50;;;;;;;1.07;1.07;;;21.20;47.40;;;;;;20705;6808;116561;-84
2022/07/13 00:24:25;;;;;;;1.10;1.10;;;20.90;47.60;;;;;;20620;6793;119101;-85
2022/07/13 00:27:01;;;;;;;1.13;0.97;;;20.60;47.80;;;;;;20754;6793;117778;-84
2022/07/13 00:29:36;;;;;;;1.63;1.27;;;20.50;48.20;;;;;;20705;6808;117407;-83
2022/07/13 00:32:12;;;;;;;1.48;1.17;;;20.30;48.70;;;;;;20476;6808;279001;-85
2022/07/13 00:34:48;;;;;;;1.00;1.00;;;20.60;48.50;;;;;;20604;6808;119755;-83
2022/07/13 00:37:23;;;;;;;1.57;1.20;;;20.60;48.20;;;;;;20657;6823;120013;-82
2022/07/13 00:39:59;;;;;;;1.90;0.90;;;20.30;48.40;;;;;;20650;6827;117893;-83
2022/07/13 00:42:34;;;;;;;1.03;1.03;;;20.10;48.80;;;;;;20618;6832;120135;-83
2022/07/13 00:45:10;;;;;;;1.00;1.00;;;20.00;49.10;;;;;;20575;6799;119779;-83
2022/07/13 00:47:47;;;;;;;1.70;1.10;;;19.90;49.30;;;;;;20541;6802;278378;-83
2022/07/13 00:50:22;;;;;;;1.40;1.30;;;20.20;49.40;;;;;;20494;6802;314364;-83
2022/07/13 00:52:58;;;;;;;1.73;1.23;;;20.60;48.90;;;;;;20500;6802;338812;-83
2022/07/13 00:55:33;;;;;;;1.00;1.00;;;20.90;48.40;;;;;;20686;6814;117683;-82
2022/07/13 00:58:09;;;;;;;1.37;1.27;;;20.70;48.30;;;;;;20622;6830;149281;-81
2022/07/13 01:00:45;;;;;;;3.17;1.07;;;20.30;48.70;;;;;;20643;6829;117786;-83
2022/07/13 01:03:20;;;;;;;1.20;1.10;;;20.00;49.00;;;;;;20432;6817;281010;-82
2022/07/13 01:05:56;;;;;;;1.40;1.30;;;20.30;49.00;;;;;;20411;6834;340030;-83
2022/07/13 01:08:31;;;;;;;1.10;1.10;;;20.50;48.40;;;;;;20735;6793;117921;-83
2022/07/13 01:11:07;;;;;;;2.83;1.23;;;20.40;48.30;;;;;;20747;6793;120455;-83
2022/07/13 01:13:42;;;;;;;1.13;1.10;;;20.10;48.50;;;;;;20677;6793;117480;-83
2022/07/13 01:16:18;;;;;;;0.90;0.90;;;19.80;48.80;;;;;;20707;6793;119729;-82
2022/07/13 01:18:53;;;;;;;1.93;1.23;;;19.70;49.20;;;;;;20744;6793;117372;-82
2022/07/13 01:21:29;;;;;;;1.13;1.10;;;19.60;49.50;;;;;;20751;6793;120144;-84
2022/07/13 01:24:05;;;;;;;1.37;1.27;;;19.50;49.70;;;;;;20644;6797;119785;-83
2022/07/13 01:26:40;;;;;;;1.33;1.23;;;19.40;49.90;;;;;;20425;6825;311494;-83
2022/07/13 01:29:17;;;;;;;1.30;1.20;;;19.70;50.20;;;;;;20700;6810;119860;-84
2022/07/13 01:31:53;;;;;;;1.40;1.30;;;19.70;49.90;;;;;;20499;6806;279538;-83
2022/07/13 01:34:28;;;;;;;1.23;1.13;;;19.90;49.70;;;;;;20359;6806;335047;-84
2022/07/13 01:37:04;;;;;;;1.10;1.03;;;20.20;49.00;;;;;;20459;6821;307183;-84
2022/07/13 01:39:39;;;;;;;1.10;1.10;;;20.40;48.60;;;;;;20533;6797;303754;-82
2022/07/13 01:42:15;;;;;;;1.47;1.30;;;20.60;48.60;;;;;;20510;6797;283325;-84
2022/07/13 01:44:50;;;;;;;1.50;1.40;;;20.60;48.30;;;;;;20327;6819;341402;-83
2022/07/13 01:47:26;;;;;;;1.40;1.30;;;20.70;48.30;;;;;;20530;6793;307648;-83
2022/07/13 01:50:02;;;;;;;1.47;1.40;;;20.70;48.50;;;;;;20470;6813;312115;-83
2022/07/13 01:52:39;;;;;;;1.20;1.20;;;20.30;49.40;;;;;;20670;6828;118859;-83
2022/07/13 01:55:14;;;;;;;1.50;1.40;;;20.30;48.70;;;;;;20215;6900;312079;-83
2022/07/13 01:57:50;;;;;;;1.50;1.40;;;20.30;49.00;;;;;;20470;6814;310029;-84
2022/07/13 02:00:25;;;;;;;3.50;1.30;;;20.40;49.10;;;;;;20640;6823;119280;-84
2022/07/13 02:03:01;;;;;;;1.50;1.40;;;20.20;49.20;;;;;;20427;6823;310512;-84
2022/07/13 02:05:37;;;;;;;1.40;1.30;;;20.20;49.10;;;;;;20487;6808;308794;-85
2022/07/13 02:08:12;;;;;;;1.50;1.40;;;20.40;48.30;;;;;;20714;6797;150592;-84
2022/07/13 02:10:48;;;;;;;1.60;1.50;;;20.30;48.50;;;;;;20704;6808;120172;-84
2022/07/13 02:13:23;;;;;;;4.30;1.20;;;20.00;48.90;;;;;;20643;6808;117673;-84
2022/07/13 02:15:59;;;;;;;1.10;1.10;;;19.70;49.20;;;;;;20709;6807;118134;-83
2022/07/13 02:18:34;;;;;;;1.60;1.43;;;19.60;49.60;;;;;;20490;6802;279443;-84
2022/07/13 02:21:12;;;;;;;1.23;1.20;;;20.30;49.00;;;;;;20515;6802;308457;-84
2022/07/13 02:23:46;;;;;;;1.27;1.27;;;20.30;49.00;;;;;;20600;6822;119960;-83
2022/07/13 02:26:22;;;;;;;4.10;1.43;;;20.20;48.90;;;;;;20735;6793;117776;-83
2022/07/13 02:28:57;;;;;;;1.60;1.50;;;19.80;49.10;;;;;;20751;6793;120494;-83
2022/07/13 02:31:34;;;;;;;1.50;1.40;;;19.60;49.40;;;;;;20535;6808;307695;-82
2022/07/13 02:34:09;;;;;;;1.70;1.50;;;20.20;48.50;;;;;;20413;6808;308550;-84
2022/07/13 02:36:45;;;;;;;1.87;1.40;;;20.20;48.40;;;;;;20499;6807;279053;-83
2022/07/13 02:39:20;;;;;;;1.30;1.30;;;20.40;47.80;;;;;;20483;6812;309091;-84
2022/07/13 02:41:56;;;;;;;1.67;1.57;;;20.60;47.50;;;;;;20687;6815;120329;-83
2022/07/13 02:44:32;;;;;;;1.10;1.10;;;20.40;47.80;;;;;;20501;6828;119866;-84
2022/07/13 02:47:07;;;;;;;1.43;1.20;;;20.00;48.30;;;;;;20427;6832;282577;-84
2022/07/13 02:49:43;;;;;;;1.50;1.30;;;20.00;48.80;;;;;;20427;6828;310182;-83
2022/07/13 02:52:18;;;;;;;1.50;1.40;;;20.30;48.50;;;;;;20422;6822;311056;-84
2022/07/13 02:54:54;;;;;;;1.30;1.30;;;20.50;48.30;;;;;;20363;6802;340117;-84
2022/07/13 02:57:30;;;;;;;1.70;1.40;;;20.20;48.20;;;;;;20742;6799;116513;-84
2022/07/13 03:00:07;;;;;;;1.10;1.10;;;20.20;48.20;;;;;;20448;6825;282254;-84
2022/07/13 03:02:42;;;;;;;1.97;1.50;;;20.10;49.20;;;;;;20737;6797;117521;-84
2022/07/13 03:05:17;;;;;;;1.80;1.70;;;19.90;48.90;;;;;;20510;6873;118183;-83
2022/07/13 03:07:54;;;;;;;2.10;1.47;;;19.50;49.30;;;;;;20691;6814;121367;-85
2022/07/13 03:10:31;;;;;;;2.00;1.73;;;19.20;49.80;;;;;;20468;6814;309714;-83
2022/07/13 03:13:06;;;;;;;1.93;1.80;;;19.40;49.80;;;;;;20460;6815;280869;-82
2022/07/13 03:15:41;;;;;;;1.52;1.48;;;19.70;49.30;;;;;;20430;6829;339492;-84
2022/07/13 03:18:17;;;;;;;1.63;1.63;;;19.90;48.80;;;;;;20668;6830;119996;-85
2022/07/13 03:20:52;;;;;;;2.60;1.80;;;19.70;49.00;;;;;;20473;6814;339767;-85
2022/07/13 03:23:29;;;;;;;1.60;1.50;;;19.90;48.60;;;;;;20464;6802;307632;-85
2022/07/13 03:26:04;;;;;;;1.70;1.60;;;19.90;48.60;;;;;;20431;6828;280114;-85
2022/07/13 03:28:40;;;;;;;1.70;1.60;;;20.00;48.20;;;;;;20404;6832;310764;-84
2022/07/13 03:31:15;;;;;;;1.27;1.27;;;20.10;48.00;;;;;;20493;6808;282297;-86
2022/07/13 03:33:51;;;;;;;1.40;1.40;;;20.20;48.00;;;;;;20600;6817;117493;-85
2022/07/13 03:36:26;;;;;;;1.48;1.40;;;19.90;48.30;;;;;;20508;6799;280049;-85
2022/07/13 03:39:02;;;;;;;1.70;1.50;;;19.80;48.20;;;;;;20464;6817;312111;-86
2022/07/13 03:41:38;;;;;;;1.70;1.60;;;20.00;47.80;;;;;;20479;6812;308234;-84
2022/07/13 03:44:13;;;;;;;1.83;1.50;;;20.20;47.60;;;;;;20519;6832;119236;-84
2022/07/13 03:46:49;;;;;;;1.50;1.40;;;19.90;48.00;;;;;;20658;6828;118085;-84
2022/07/13 03:49:25;;;;;;;1.80;1.70;;;19.60;48.70;;;;;;20438;6832;278995;-85
2022/07/13 03:52:01;;;;;;;2.50;1.30;;;19.60;48.70;;;;;;20472;6817;338127;-85
2022/07/13 03:54:36;;;;;;;1.70;1.50;;;19.80;48.20;;;;;;20288;6828;311673;-84
2022/07/13 03:57:12;;;;;;;1.62;1.50;;;19.90;48.00;;;;;;20523;6798;332794;-84
2022/07/13 03:59:49;;;;;;;2.20;1.70;;;20.00;47.70;;;;;;20739;6798;117417;-85
2022/07/13 04:02:25;;;;;;;1.73;1.23;;;19.70;48.10;;;;;;20706;6798;117217;-84
2022/07/13 04:05:01;;;;;;;1.62;1.52;;;19.30;48.90;;;;;;20356;6806;338448;-84
2022/07/13 04:07:36;;;;;;;1.50;1.50;;;19.40;49.10;;;;;;20474;6815;280670;-85
2022/07/13 04:10:12;;;;;;;1.80;1.70;;;19.60;48.60;;;;;;20694;6807;117423;-85
2022/07/13 04:12:48;;;;;;;1.60;1.50;;;19.50;48.90;;;;;;20468;6817;336855;-83
2022/07/13 04:15:23;;;;;;;1.50;1.40;;;19.50;49.00;;;;;;20452;6820;309098;-84
2022/07/13 04:17:59;;;;;;;1.60;1.50;;;19.70;48.50;;;;;;20458;6820;338244;-83
2022/07/13 04:20:34;;;;;;;1.37;1.37;;;19.80;48.20;;;;;;20646;6820;119971;-83
2022/07/13 04:23:10;;;;;;;1.60;1.50;;;19.60;48.50;;;;;;20413;6820;311723;-85
2022/07/13 04:25:46;;;;;;;1.40;1.30;;;19.60;48.30;;;;;;20701;6807;118527;-86
2022/07/13 04:28:22;;;;;;;2.60;2.50;;;19.40;48.60;;;;;;20703;6802;117334;-88
2022/07/13 04:30:58;;;;;;;1.40;1.40;;;19.00;49.10;;;;;;20676;6816;118478;-89
2022/07/13 04:33:35;;;;;;;1.33;1.33;;;18.80;49.80;;;;;;20706;6807;117467;-89
2022/07/13 04:36:11;;;;;;;1.40;1.23;;;18.60;50.00;;;;;;20635;6817;117899;-89
2022/07/13 04:38:47;;;;;;;2.43;1.47;;;18.50;50.40;;;;;;20696;6802;117645;-91
2022/07/13 04:41:23;;;;;;;1.77;1.67;;;18.40;51.20;;;;;;20464;6816;306442;-88
2022/07/13 04:43:59;;;;;;;1.80;1.70;;;18.70;50.00;;;;;;20604;6807;119294;-89
2022/07/13 05:08:19;;;;;;;3.03;1.53;;;20.20;48.30;;;;;;21065;6514;86541;-87
2022/07/13 05:10:46;;;;;;;2.10;1.90;;;19.80;48.60;;;;;;20700;6776;283544;-88
2022/07/13 05:13:11;;;;;;;4.00;1.70;;;19.60;49.10;;;;;;20802;6830;117306;-90
2022/07/13 05:15:37;;;;;;;2.27;1.53;;;19.60;49.10;;;;;;20810;6829;117791;-91
2022/07/13 05:18:02;;;;;;;1.70;1.60;;;19.30;49.60;;;;;;20806;6829;117520;-91
2022/07/13 05:20:28;;;;;;;2.10;1.90;;;19.10;50.00;;;;;;20788;6829;118498;-90
2022/07/13 05:22:53;;;;;;;1.92;1.80;;;18.90;50.30;;;;;;20598;6829;310058;-90
2022/07/13 05:25:20;;;;;;;3.40;1.73;;;19.20;50.20;;;;;;20806;6829;117070;-91
2022/07/13 05:27:45;;;;;;;1.90;1.50;;;19.20;50.20;;;;;;20805;6829;122699;-91
2022/07/13 05:30:11;;;;;;;2.47;1.90;;;19.10;50.30;;;;;;20571;6830;307296;-89
2022/07/13 05:32:36;;;;;;;1.73;1.63;;;19.40;50.30;;;;;;20813;6830;118237;-91
2022/07/13 05:35:02;;;;;;;2.57;1.83;;;19.50;50.10;;;;;;20573;6830;307932;-92
2022/07/13 05:37:28;;;;;;;1.60;1.50;;;19.70;49.70;;;;;;20615;6812;336081;-91
2022/07/13 05:39:53;;;;;;;2.25;1.70;;;20.10;49.10;;;;;;20652;6813;307478;-91
2022/07/13 05:42:19;;;;;;;2.00;1.70;;;20.50;48.80;;;;;;20610;6813;278084;-91
2022/07/13 05:44:44;;;;;;;1.83;1.70;;;20.80;48.50;;;;;;20796;6833;117055;-91
2022/07/13 05:47:10;;;;;;;1.90;1.63;;;20.60;48.50;;;;;;20586;6831;278271;-91
2022/07/13 05:49:35;;;;;;;1.80;1.63;;;20.70;48.70;;;;;;20721;6857;116279;-91
2022/07/13 05:52:01;;;;;;;2.47;1.60;;;20.60;48.90;;;;;;20473;6860;308511;-91
2022/07/13 05:54:26;;;;;;;1.67;1.57;;;20.70;49.10;;;;;;20759;6830;117760;-91
2022/07/13 05:56:52;;;;;;;1.70;1.60;;;20.60;49.20;;;;;;20559;6831;294857;-91
2022/07/13 05:59:18;;;;;;;2.40;1.50;;;20.80;49.20;;;;;;20800;6831;117003;-91
2022/07/13 06:01:45;;;;;;;3.67;1.70;;;20.70;49.10;;;;;;20589;6831;336527;-91
2022/07/13 06:04:11;;;;;;;1.60;1.50;;;20.90;49.20;;;;;;20780;6831;147867;-91
2022/07/13 06:06:36;;;;;;;2.10;1.70;;;20.90;49.20;;;;;;20604;6831;287223;-91
2022/07/13 06:09:03;;;;;;;2.10;1.80;;;21.40;48.90;;;;;;20666;6831;278070;-91
2022/07/13 06:11:28;;;;;;;1.60;1.50;;;21.40;48.90;;;;;;20789;6831;122748;-91
2022/07/13 06:13:54;;;;;;;2.50;1.50;;;21.40;48.80;;;;;;20596;6831;299869;-91
2022/07/13 06:16:19;;;;;;;3.80;1.40;;;21.60;48.40;;;;;;20744;6831;140757;-91
2022/07/13 06:18:45;;;;;;;1.65;1.55;;;21.60;48.40;;;;;;20587;6832;298677;-90
2022/07/13 06:21:11;;;;;;;3.40;1.57;;;22.20;48.40;;;;;;20802;6830;117913;-91
2022/07/13 06:23:37;;;;;;;1.50;1.40;;;22.20;48.40;;;;;;20797;6830;117052;-91
2022/07/13 06:26:04;;;;;;;2.53;1.60;;;23.10;46.10;;;;;;20580;6830;312325;-90
2022/07/13 06:28:30;;;;;;;2.37;1.87;;;23.10;46.10;;;;;;20764;6830;117572;-91
2022/07/13 06:30:57;;;;;;;1.40;1.30;;;23.80;46.50;;;;;;20804;6830;117775;-91
2022/07/13 06:33:22;;;;;;;1.60;1.50;;;24.30;46.70;;;;;;20804;6830;120191;-91
2022/07/13 06:35:49;;;;;;;2.72;1.50;;;24.90;46.40;;;;;;20841;6830;67386;-90
2022/07/13 06:38:16;;;;;;;2.33;1.40;;;25.50;45.70;;;;;;20579;6830;306128;-91
2022/07/13 06:40:41;;;;;;;3.07;1.70;;;26.30;41.50;;;;;;20629;6830;305700;-91
2022/07/13 06:43:07;;;;;;;1.50;1.40;;;27.10;40.30;;;;;;20878;6830;66440;-92
2022/07/13 06:45:34;;;;;;;1.77;1.67;;;27.20;41.00;;;;;;20802;6830;119496;-92
2022/07/13 06:47:59;;;;;;;2.40;1.50;;;27.10;40.90;;;;;;20803;6830;117101;-92
2022/07/13 06:50:25;;;;;;;2.33;1.30;;;27.00;41.20;;;;;;20779;6830;123472;-91
2022/07/13 06:52:51;;;;;;;1.20;1.10;;;27.00;41.10;;;;;;20794;6830;117264;-91
2022/07/13 06:55:16;;;;;;;1.17;1.05;;;27.20;41.10;;;;;;20599;6830;335945;-89
2022/07/13 06:57:42;;;;;;;2.53;1.30;;;27.80;38.80;;;;;;20598;6830;308362;-90
2022/07/13 07:00:09;;;;;;;1.33;1.12;;;28.60;37.80;;;;;;20619;6830;307394;-88
2022/07/13 07:02:37;;;;;;;1.43;1.13;;;29.20;36.70;;;;;;20641;6830;278832;-89
2022/07/13 07:05:00;;;;;;;1.62;0.90;;;29.60;36.00;;;;;;20868;6830;116198;-89
2022/07/13 07:07:26;;;;;;;1.50;1.17;;;29.60;36.70;;;;;;20831;6830;117908;-90
2022/07/13 07:09:52;;;;;;;1.97;1.20;;;29.50;36.60;;;;;;20592;6830;292019;-90
2022/07/13 07:12:17;;;;;;;1.70;1.12;;;29.70;35.90;;;;;;20566;6830;280274;-90
2022/07/13 07:14:44;;;;;;;1.10;1.10;;;30.10;35.80;;;;;;20803;6827;119887;-90
2022/07/13 07:17:10;;;;;;;3.73;1.10;;;30.10;35.70;;;;;;20808;6827;117211;-90
2022/07/13 07:19:35;;;;;;;1.23;1.13;;;30.00;36.10;;;;;;20586;6827;309753;-90
2022/07/13 07:22:00;;;;;;;1.30;1.20;;;30.20;35.10;;;;;;20597;6827;336513;-90
2022/07/13 07:24:26;;;;;;;1.20;1.20;;;30.60;34.30;;;;;;20591;6826;279852;-90
2022/07/13 07:26:51;;;;;;;1.13;1.10;;;30.80;34.10;;;;;;20809;6826;117847;-89
2022/07/13 07:29:17;;;;;;;1.15;1.10;;;30.60;34.60;;;;;;20602;6825;309821;-89
2022/07/13 07:31:43;;;;;;;1.67;1.30;;;30.40;35.20;;;;;;20801;6826;117032;-89
2022/07/13 07:34:09;;;;;;;1.83;1.23;;;30.40;35.20;;;;;;20591;6826;277957;-91
2022/07/13 07:36:34;;;;;;;2.60;1.13;;;30.50;34.60;;;;;;20604;6827;309830;-90
2022/07/13 07:39:00;;;;;;;1.12;1.02;;;30.80;34.50;;;;;;20602;6827;307417;-90
2022/07/13 07:41:25;;;;;;;1.20;1.00;;;31.10;34.00;;;;;;20818;6827;116591;-90
2022/07/13 07:43:51;;;;;;;2.15;1.30;;;31.00;34.20;;;;;;20600;6827;277737;-90
2022/07/13 07:46:17;;;;;;;1.02;1.00;;;31.30;34.20;;;;;;20800;6827;130039;-90
2022/07/13 07:48:43;;;;;;;2.30;1.10;;;31.30;34.20;;;;;;20600;6827;308196;-89
2022/07/13 07:51:08;;;;;;;1.73;1.10;;;31.50;32.50;;;;;;20819;6827;117970;-90
2022/07/13 07:53:35;;;;;;;2.07;1.00;;;31.50;33.40;;;;;;20604;6827;306902;-89
2022/07/13 07:56:01;;;;;;;1.60;1.02;;;31.60;32.70;;;;;;20596;6827;338353;-89
2022/07/13 07:58:26;;;;;;;3.20;1.13;;;31.80;32.80;;;;;;20798;6827;120098;-90
2022/07/13 08:00:52;;;;;;;1.00;1.00;;;31.70;33.00;;;;;;20599;6827;311111;-90
2022/07/13 08:03:17;;;;;;;1.43;1.10;;;31.70;32.50;;;;;;20609;6827;277978;-91
2022/07/13 08:05:48;;;;;;;1.67;1.00;;;32.00;32.00;;;;;;20600;6827;309856;-90
2022/07/13 08:08:09;;;;;;;1.83;1.00;;;32.30;31.60;;;;;;20786;6827;118701;-91
2022/07/13 08:10:34;;;;;;;3.83;1.00;;;32.20;31.90;;;;;;20610;6827;278618;-90
2022/07/13 08:13:00;;;;;;;1.97;0.90;;;32.40;31.50;;;;;;20599;6827;278534;-89
2022/07/13 08:15:26;;;;;;;0.80;0.80;;;32.40;31.50;;;;;;20601;6827;305777;-89
2022/07/13 08:17:52;;;;;;;1.40;0.82;;;32.50;30.70;;;;;;20608;6827;277854;-89
2022/07/13 08:20:18;;;;;;;1.87;1.00;;;32.50;30.40;;;;;;20609;6827;310300;-89
2022/07/13 08:22:43;;;;;;;1.50;0.95;;;32.50;30.40;;;;;;20609;6827;278093;-90
2022/07/13 08:25:09;;;;;;;1.08;0.90;;;32.60;31.40;;;;;;20598;6827;307731;-90
2022/07/13 08:27:34;;;;;;;2.23;0.97;;;32.70;30.40;;;;;;20605;6827;306721;-89
2022/07/13 08:30:00;;;;;;;2.07;0.97;;;33.00;30.20;;;;;;20816;6827;122160;-89
2022/07/13 08:32:26;;;;;;;0.93;0.93;;;33.10;30.10;;;;;;20772;6827;118756;-90
2022/07/13 08:40:22;;;;;;;0.70;0.70;;;33.60;29.00;;;;;;20799;6825;117885;-91
2022/07/13 08:42:48;;;;;;;2.47;0.80;;;33.50;29.30;;;;;;20819;6826;117344;-90
2022/07/13 08:45:13;;;;;;;1.50;0.90;;;33.30;29.50;;;;;;20819;6826;120112;-91
2022/07/13 08:47:39;;;;;;;0.93;0.80;;;33.10;29.50;;;;;;20808;6827;117292;-91
2022/07/13 08:50:06;;;;;;;0.95;0.82;;;32.90;29.70;;;;;;20597;6827;277950;-92
2022/07/13 08:52:30;;;;;;;0.87;0.80;;;33.10;28.90;;;;;;20787;6827;117706;-91
2022/07/13 08:54:56;;;;;;;2.30;0.90;;;33.40;29.00;;;;;;20594;6827;298214;-91
2022/07/13 08:57:22;;;;;;;0.80;0.80;;;33.40;29.10;;;;;;20810;6827;122256;-91
2022/07/13 08:59:47;;;;;;;0.80;0.80;;;33.40;29.10;;;;;;20814;6827;121540;-91
2022/07/13 09:02:13;;;;;;;1.60;1.00;;;33.30;29.10;;;;;;20591;6827;285429;-91
2022/07/13 09:04:39;;;;;;;1.80;0.80;;;33.50;28.40;;;;;;20601;6827;280714;-91
2022/07/13 09:07:06;;;;;;;1.27;0.88;;;33.90;27.60;;;;;;20588;6827;307556;-91
2022/07/13 09:09:33;;;;;;;0.60;0.60;;;34.10;27.40;;;;;;20805;6827;116096;-90
2022/07/13 09:12:16;;;;;;;2.00;1.00;;;34.10;27.80;;;;;;20803;6827;118746;-90
2022/07/13 09:14:41;;;;;;;0.70;0.70;;;33.90;27.90;;;;;;20796;6827;117334;-91
2022/07/13 09:17:07;;;;;;;1.47;0.90;;;33.70;28.40;;;;;;20808;6827;117373;-91
2022/07/13 09:19:37;;;;;;;0.83;0.83;;;33.60;28.50;;;;;;20822;6827;117310;-90
2022/07/13 09:22:12;;;;;;;1.30;0.80;;;33.60;28.70;;;;;;20618;6827;305514;-89
2022/07/13 09:24:47;;;;;;;1.77;0.80;;;33.90;28.40;;;;;;20685;6827;336788;-89
2022/07/13 09:27:15;;;;;;;1.00;0.90;;;34.40;28.60;;;;;;20855;6827;117471;-90
2022/07/13 09:29:41;;;;;;;0.70;0.70;;;34.10;28.60;;;;;;20813;6827;117230;-92
2022/07/13 09:32:11;;;;;;;1.70;0.90;;;34.10;28.60;;;;;;20812;6827;117835;-91
2022/07/13 09:34:42;;;;;;;1.80;0.87;;;33.90;28.90;;;;;;20812;6827;117601;-91
2022/07/13 09:37:08;;;;;;;2.45;0.70;;;33.70;28.50;;;;;;20600;6827;317760;-91
2022/07/13 09:39:33;;;;;;;1.48;0.90;;;33.90;28.10;;;;;;20602;6827;277646;-91
2022/07/13 09:41:59;;;;;;;1.20;0.80;;;34.10;28.10;;;;;;20608;6827;277554;-91
2022/07/13 09:47:10;;;;;;;0.73;0.73;;;34.50;27.80;;;;;;20816;6827;117051;-91
2022/07/13 09:49:42;;;;;;;0.95;0.70;;;34.30;28.00;;;;;;20597;6827;306035;-91
2022/07/13 09:52:17;;;;;;;1.40;0.87;;;34.40;27.30;;;;;;20644;6825;278585;-89
2022/07/13 09:54:42;;;;;;;0.93;0.80;;;34.70;27.50;;;;;;20884;6826;112973;-90
2022/07/13 09:57:08;;;;;;;1.67;0.62;;;34.70;28.20;;;;;;20633;6826;308696;-91
2022/07/13 09:59:33;;;;;;;2.40;0.80;;;34.80;27.50;;;;;;20811;6827;118767;-91
2022/07/13 10:01:59;;;;;;;1.85;0.70;;;34.80;26.60;;;;;;20794;6827;117595;-91
2022/07/13 10:04:38;;;;;;;1.57;0.80;;;34.70;26.20;;;;;;20578;6827;281381;-91
2022/07/13 10:07:05;;;;;;;1.33;0.90;;;34.80;26.80;;;;;;20598;6827;307125;-92
2022/07/13 10:09:30;;;;;;;1.00;0.83;;;35.10;26.60;;;;;;20592;6827;277456;-91
2022/07/13 10:11:56;;;;;;;1.40;0.70;;;35.20;25.90;;;;;;20805;6827;117591;-91
2022/07/13 10:14:22;;;;;;;0.93;0.70;;;35.20;25.90;;;;;;20767;6827;117102;-88
2022/07/13 10:16:49;;;;;;;0.63;0.63;;;34.40;25.50;;;;;;20798;6827;117215;-90
2022/07/13 10:19:14;;;;;;;0.80;0.80;;;34.50;25.50;;;;;;20598;6827;291000;-91
2022/07/13 10:22:04;;;;;;;0.90;0.83;;;34.40;24.60;;;;;;20810;6827;123159;-90
2022/07/13 10:24:30;;;;;;;1.03;0.80;;;34.30;25.20;;;;;;20792;6827;122986;-90
2022/07/13 10:27:26;;;;;;;0.60;0.60;;;34.10;25.20;;;;;;20819;6827;117108;-90
2022/07/13 10:29:55;;;;;;;1.93;0.80;;;33.90;25.40;;;;;;20843;6827;116283;-90
2022/07/13 10:32:21;;;;;;;2.12;0.70;;;33.80;25.70;;;;;;20575;6827;305248;-89
2022/07/13 10:34:51;;;;;;;0.70;0.70;;;34.40;25.40;;;;;;20576;6827;302906;-91
2022/07/13 10:37:18;;;;;;;0.90;0.90;;;34.40;25.30;;;;;;20808;6827;117592;-90
2022/07/13 10:40:12;;;;;;;1.60;0.70;;;34.40;24.80;;;;;;20599;6827;307388;-90
2022/07/13 10:42:59;;;;;;;0.70;0.70;;;34.50;25.20;;;;;;20789;6827;118285;-90
2022/07/13 10:48:25;;;;;;;1.87;0.90;;;34.60;24.80;;;;;;20203;6831;279533;-92
2022/07/13 10:50:55;;;;;;;2.07;0.90;;;34.70;25.30;;;;;;20636;6816;309365;-90
2022/07/13 10:53:21;;;;;;;0.73;0.73;;;34.90;25.00;;;;;;20630;6816;307899;-90
2022/07/13 10:55:48;;;;;;;0.80;0.80;;;34.90;24.60;;;;;;20596;6816;301258;-90
2022/07/13 10:58:31;;;;;;;3.07;0.80;;;35.00;23.50;;;;;;20812;6816;117707;-89
2022/07/13 11:01:07;;;;;;;2.05;0.80;;;34.70;23.90;;;;;;20637;6816;306766;-91
2022/07/13 11:03:35;;;;;;;0.90;0.80;;;34.70;23.90;;;;;;20208;6829;121474;-90
2022/07/13 11:06:04;;;;;;;0.80;0.80;;;34.50;24.20;;;;;;20589;6830;307960;-90
2022/07/13 11:08:29;;;;;;;2.13;0.70;;;34.40;24.00;;;;;;20544;6830;308420;-90
2022/07/13 11:11:08;;;;;;;0.60;0.60;;;34.50;23.50;;;;;;20811;6830;117739;-90
2022/07/13 11:13:34;;;;;;;2.08;0.90;;;34.40;23.80;;;;;;20573;6831;307144;-91
2022/07/13 11:15:59;;;;;;;1.67;0.80;;;34.60;24.00;;;;;;20592;6831;306463;-91
2022/07/13 11:18:27;;;;;;;0.85;0.70;;;34.60;24.00;;;;;;20554;6831;281989;-91
2022/07/13 11:20:57;;;;;;;1.60;0.80;;;34.80;24.10;;;;;;20577;6831;314881;-90
2022/07/13 11:26:15;;;;;;;1.30;0.60;;;34.90;23.50;;;;;;20598;6831;306783;-90
2022/07/13 11:28:41;;;;;;;0.90;0.60;;;34.90;23.50;;;;;;20461;6831;276831;-89
2022/07/13 11:31:07;;;;;;;0.80;0.80;;;35.00;23.80;;;;;;20774;6831;120214;-89
2022/07/13 11:33:32;;;;;;;1.53;0.70;;;35.00;24.00;;;;;;20589;6831;339532;-89
2022/07/13 11:35:59;;;;;;;1.30;0.90;;;35.00;23.60;;;;;;20591;6828;288122;-89
2022/07/13 11:38:23;;;;;;;1.48;0.80;;;35.00;23.30;;;;;;20579;6828;279584;-90
2022/07/13 11:40:49;;;;;;;1.45;0.68;;;35.10;23.30;;;;;;20588;6828;302414;-89
2022/07/13 11:43:14;;;;;;;0.65;0.60;;;35.10;22.90;;;;;;20604;6829;306012;-89
2022/07/13 11:45:40;;;;;;;0.50;0.50;;;35.10;21.70;;;;;;20819;6829;117801;-89
2022/07/13 11:48:05;;;;;;;0.70;0.60;;;35.00;22.40;;;;;;20585;6829;307342;-90
2022/07/13 11:50:38;;;;;;;1.02;0.60;;;34.80;21.50;;;;;;20601;6819;278486;-89
2022/07/13 11:53:03;;;;;;;0.83;0.50;;;34.90;21.00;;;;;;20768;6831;117565;-89
2022/07/13 11:55:29;;;;;;;0.70;0.70;;;34.70;21.10;;;;;;20659;6831;306570;-88
2022/07/13 11:57:54;;;;;;;0.40;0.40;;;34.60;21.40;;;;;;20886;6816;119548;-88
2022/07/13 12:00:20;;;;;;;0.30;0.30;;;34.40;20.00;;;;;;20611;6816;306037;-90
2022/07/13 12:02:46;;;;;;;0.60;0.60;;;34.50;20.10;;;;;;20864;6816;117994;-90
2022/07/13 12:05:12;;;;;;;0.70;0.50;;;34.40;19.80;;;;;;20628;6816;277685;-90
2022/07/13 12:07:37;;;;;;;0.30;0.30;;;34.50;19.60;;;;;;20867;6816;120743;-90
2022/07/13 12:10:03;;;;;;;0.30;0.30;;;34.40;19.50;;;;;;20641;6816;310800;-91
2022/07/13 12:12:35;;;;;;;0.60;0.50;;;34.60;19.70;;;;;;20599;6816;277625;-89
2022/07/13 12:15:00;;;;;;;0.50;0.50;;;34.80;20.20;;;;;;20631;6816;307200;-89
2022/07/13 12:17:26;;;;;;;0.50;0.50;;;35.00;20.00;;;;;;20643;6814;306009;-90
2022/07/13 12:19:51;;;;;;;4.13;0.50;;;35.10;19.40;;;;;;20846;6816;117055;-90
2022/07/13 12:22:20;;;;;;;0.30;0.30;;;35.00;19.60;;;;;;20831;6816;120402;-88
2022/07/13 12:24:47;;;;;;;2.00;0.60;;;34.70;19.80;;;;;;20643;6816;277425;-89
2022/07/13 12:27:26;;;;;;;0.70;0.50;;;34.80;20.80;;;;;;20654;6816;336198;-90
2022/07/13 12:29:52;;;;;;;1.80;0.40;;;35.00;20.40;;;;;;20650;6816;306980;-90
2022/07/13 12:32:17;;;;;;;1.52;0.50;;;35.20;19.80;;;;;;20665;6816;328206;-90
2022/07/13 12:34:49;;;;;;;0.97;0.50;;;35.40;19.60;;;;;;20917;6816;113486;-92
2022/07/13 12:37:14;;;;;;;0.97;0.40;;;35.40;19.80;;;;;;20844;6816;117100;-90
2022/07/13 12:39:41;;;;;;;0.40;0.30;;;35.10;20.00;;;;;;20778;6816;120249;-90
2022/07/13 12:42:06;;;;;;;0.80;0.50;;;35.10;19.90;;;;;;20651;6816;275941;-91
2022/07/13 12:44:31;;;;;;;0.77;0.40;;;35.30;19.70;;;;;;20615;6816;307142;-91
2022/07/13 12:46:58;;;;;;;0.50;0.50;;;35.60;19.00;;;;;;20848;6816;117191;-90
2022/07/13 12:49:34;;;;;;;1.30;0.50;;;35.60;19.20;;;;;;20848;6816;117135;-90
2022/07/13 12:52:02;;;;;;;0.53;0.50;;;35.50;19.80;;;;;;20621;6816;277544;-91
2022/07/13 12:54:45;;;;;;;0.77;0.37;;;35.60;19.30;;;;;;20815;6816;118757;-91
2022/07/13 12:57:20;;;;;;;0.83;0.53;;;35.60;19.30;;;;;;20832;6816;117137;-91
2022/07/13 13:00:13;;;;;;;1.80;0.50;;;35.40;20.40;;;;;;20848;6816;117661;-91
2022/07/13 13:02:38;;;;;;;0.40;0.40;;;35.30;19.70;;;;;;20697;6816;313358;-90
2022/07/13 13:05:09;;;;;;;0.30;0.30;;;35.60;17.80;;;;;;20942;6816;66939;-91
2022/07/13 13:07:32;;;;;;;0.50;0.40;;;35.70;18.60;;;;;;20911;6816;66717;-91
2022/07/13 13:10:03;;;;;;;1.50;0.40;;;35.60;19.40;;;;;;20631;6816;307108;-93
2022/07/13 13:12:48;;;;;;;;;;;;;;;;;;;;;
2022/07/13 13:15:01;;;;;;;0.43;0.40;;;36.00;18.80;;;;;;20544;6827;278177;-91
2022/07/13 13:17:26;;;;;;;0.87;0.40;;;36.40;18.50;;;;;;20582;6840;307249;-93
2022/07/13 13:19:56;;;;;;;0.43;0.40;;;36.60;18.90;;;;;;20549;6842;324407;-94
2022/07/13 13:22:20;;;;;;;0.47;0.37;;;36.50;17.90;;;;;;20681;6842;119574;-91
2022/07/13 13:24:47;;;;;;;0.70;0.43;;;36.50;17.80;;;;;;20842;6819;116248;-90
2022/07/13 13:27:12;;;;;;;1.50;0.43;;;36.20;18.40;;;;;;20809;6819;117150;-91
2022/07/13 13:32:26;;;;;;;1.87;1.77;;;35.70;19.30;;;;;;20694;6859;120208;-92